sensor_id;sensor_type;location;lat;lon;timestamp;pressure;altitude;pressure_sealevel;temperature;humidity
6132;BME280;3097;42.692;23.278;2023-02-12T00:02:22;95990.72;;;1.78;46.98
6132;BME280;3097;42.692;23.278;2023-02-12T00:04:47;95995.94;;;1.76;47.06
6132;BME280;3097;42.692;23.278;2023-02-12T00:07:13;95988.22;;;1.68;47.26
6132;BME280;3097;42.692;23.278;2023-02-12T00:09:39;96002.25;;;1.72;47.66
6132;BME280;3097;42.692;23.278;2023-02-12T00:12:04;96008.66;;;1.76;47.47
6132;BME280;3097;42.692;23.278;2023-02-12T00:14:30;95994.75;;;1.80;47.15
6132;BME280;3097;42.692;23.278;2023-02-12T00:16:55;96012.91;;;1.85;47.25
6132;BME280;3097;42.692;23.278;2023-02-12T00:19:20;96002.31;;;1.90;47.37
6132;BME280;3097;42.692;23.278;2023-02-12T00:21:46;96005.09;;;1.97;47.14
6132;BME280;3097;42.692;23.278;2023-02-12T00:24:11;96006.03;;;1.95;47.26
6132;BME280;3097;42.692;23.278;2023-02-12T00:26:37;96005.50;;;2.02;47.04
6132;BME280;3097;42.692;23.278;2023-02-12T00:29:02;96003.09;;;2.00;47.20
6132;BME280;3097;42.692;23.278;2023-02-12T00:31:29;95991.44;;;1.98;46.96
6132;BME280;3097;42.692;23.278;2023-02-12T00:33:56;95986.09;;;2.01;46.84
6132;BME280;3097;42.692;23.278;2023-02-12T00:36:25;95991.69;;;2.04;46.90
6132;BME280;3097;42.692;23.278;2023-02-12T00:38:52;95982.44;;;2.03;47.13
6132;BME280;3097;42.692;23.278;2023-02-12T00:41:18;95948.03;;;1.81;47.22
6132;BME280;3097;42.692;23.278;2023-02-12T00:43:44;95972.28;;;2.03;47.24
6132;BME280;3097;42.692;23.278;2023-02-12T00:46:10;95957.72;;;1.95;47.34
6132;BME280;3097;42.692;23.278;2023-02-12T00:48:36;95972.13;;;2.05;46.98
6132;BME280;3097;42.692;23.278;2023-02-12T00:51:02;95962.78;;;2.05;47.06
6132;BME280;3097;42.692;23.278;2023-02-12T00:53:28;95902.75;;;1.67;46.84
6132;BME280;3097;42.692;23.278;2023-02-12T00:55:54;95947.84;;;1.92;47.43
6132;BME280;3097;42.692;23.278;2023-02-12T00:58:19;95947.28;;;1.99;47.54
6132;BME280;3097;42.692;23.278;2023-02-12T01:00:45;95948.34;;;1.96;47.58
6132;BME280;3097;42.692;23.278;2023-02-12T01:03:11;95948.75;;;2.01;47.41
6132;BME280;3097;42.692;23.278;2023-02-12T01:05:36;95949.25;;;2.05;47.53
6132;BME280;3097;42.692;23.278;2023-02-12T01:08:02;95953.63;;;2.12;47.30
6132;BME280;3097;42.692;23.278;2023-02-12T01:10:28;95949.47;;;2.11;47.17
6132;BME280;3097;42.692;23.278;2023-02-12T01:12:53;95962.19;;;2.11;46.98
6132;BME280;3097;42.692;23.278;2023-02-12T01:15:19;95962.47;;;2.18;47.33
6132;BME280;3097;42.692;23.278;2023-02-12T01:17:44;95961.78;;;2.16;47.41
6132;BME280;3097;42.692;23.278;2023-02-12T01:20:12;95961.66;;;2.17;47.09
6132;BME280;3097;42.692;23.278;2023-02-12T01:22:38;95961.22;;;2.22;47.19
6132;BME280;3097;42.692;23.278;2023-02-12T01:25:04;95962.59;;;2.34;46.89
6132;BME280;3097;42.692;23.278;2023-02-12T01:27:30;95964.34;;;2.33;46.82
6132;BME280;3097;42.692;23.278;2023-02-12T01:29:55;95966.75;;;2.35;46.84
6132;BME280;3097;42.692;23.278;2023-02-12T01:32:21;95970.09;;;2.36;46.88
6132;BME280;3097;42.692;23.278;2023-02-12T01:34:46;95964.13;;;2.27;47.26
6132;BME280;3097;42.692;23.278;2023-02-12T01:37:11;95965.72;;;2.28;47.01
6132;BME280;3097;42.692;23.278;2023-02-12T01:39:37;95960.28;;;2.23;47.62
6132;BME280;3097;42.692;23.278;2023-02-12T01:42:03;95879.94;;;1.58;47.94
6132;BME280;3097;42.692;23.278;2023-02-12T01:44:30;95951.31;;;2.19;47.65
6132;BME280;3097;42.692;23.278;2023-02-12T01:46:58;95925.34;;;1.98;48.01
6132;BME280;3097;42.692;23.278;2023-02-12T01:49:31;95907.41;;;1.99;48.11
6132;BME280;3097;42.692;23.278;2023-02-12T01:52:12;95899.66;;;2.01;48.24
6132;BME280;3097;42.692;23.278;2023-02-12T01:54:38;95920.06;;;2.09;48.12
6132;BME280;3097;42.692;23.278;2023-02-12T01:57:08;95904.16;;;2.07;48.13
6132;BME280;3097;42.692;23.278;2023-02-12T01:59:36;95941.13;;;2.19;48.32
6132;BME280;3097;42.692;23.278;2023-02-12T02:02:03;95778.31;;;1.03;48.62
6132;BME280;3097;42.692;23.278;2023-02-12T02:04:32;95939.38;;;2.02;48.65
6132;BME280;3097;42.692;23.278;2023-02-12T02:07:03;95948.44;;;2.04;48.85
6132;BME280;3097;42.692;23.278;2023-02-12T02:09:32;95940.91;;;1.94;48.83
6132;BME280;3097;42.692;23.278;2023-02-12T02:11:58;95944.38;;;1.93;49.44
6132;BME280;3097;42.692;23.278;2023-02-12T02:14:43;95929.75;;;1.68;49.54
6132;BME280;3097;42.692;23.278;2023-02-12T02:24:15;95942.94;;;1.81;49.74
6132;BME280;3097;42.692;23.278;2023-02-12T02:27:06;95944.69;;;1.81;49.83
6132;BME280;3097;42.692;23.278;2023-02-12T02:32:30;95927.66;;;1.64;50.42
6132;BME280;3097;42.692;23.278;2023-02-12T02:35:10;95903.16;;;1.35;50.43
6132;BME280;3097;42.692;23.278;2023-02-12T02:37:49;95924.88;;;1.57;50.57
6132;BME280;3097;42.692;23.278;2023-02-12T02:40:21;95925.72;;;1.48;50.90
6132;BME280;3097;42.692;23.278;2023-02-12T02:42:54;95914.53;;;1.31;51.19
6132;BME280;3097;42.692;23.278;2023-02-12T02:45:31;95929.63;;;1.33;51.32
6132;BME280;3097;42.692;23.278;2023-02-12T02:48:23;95918.81;;;1.31;51.44
6132;BME280;3097;42.692;23.278;2023-02-12T02:50:55;95936.81;;;1.47;51.48
6132;BME280;3097;42.692;23.278;2023-02-12T02:53:32;95936.00;;;1.46;51.38
6132;BME280;3097;42.692;23.278;2023-02-12T02:56:00;95937.31;;;1.50;51.31
6132;BME280;3097;42.692;23.278;2023-02-12T02:58:47;95929.66;;;1.60;51.24
6132;BME280;3097;42.692;23.278;2023-02-12T03:01:27;95929.81;;;1.59;51.51
6132;BME280;3097;42.692;23.278;2023-02-12T03:04:01;95945.00;;;1.68;51.42
6132;BME280;3097;42.692;23.278;2023-02-12T03:06:42;95940.75;;;1.59;51.87
6132;BME280;3097;42.692;23.278;2023-02-12T03:09:18;95938.78;;;1.53;52.24
6132;BME280;3097;42.692;23.278;2023-02-12T03:11:45;95943.97;;;1.61;52.00
6132;BME280;3097;42.692;23.278;2023-02-12T03:14:19;95917.84;;;1.41;52.44
6132;BME280;3097;42.692;23.278;2023-02-12T03:17:03;95928.25;;;1.48;52.52
6132;BME280;3097;42.692;23.278;2023-02-12T03:19:33;95930.75;;;1.58;51.92
6132;BME280;3097;42.692;23.278;2023-02-12T03:22:07;95933.53;;;1.64;52.11
6132;BME280;3097;42.692;23.278;2023-02-12T03:24:50;95922.00;;;1.70;52.38
6132;BME280;3097;42.692;23.278;2023-02-12T03:29:50;95920.63;;;1.75;52.24
6132;BME280;3097;42.692;23.278;2023-02-12T03:35:31;95889.81;;;1.61;52.11
6132;BME280;3097;42.692;23.278;2023-02-12T03:38:12;95915.28;;;1.78;52.06
6132;BME280;3097;42.692;23.278;2023-02-12T03:40:44;95912.44;;;1.81;52.02
6132;BME280;3097;42.692;23.278;2023-02-12T03:43:33;95912.25;;;1.92;51.98
6132;BME280;3097;42.692;23.278;2023-02-12T03:46:22;95916.53;;;1.92;52.46
6132;BME280;3097;42.692;23.278;2023-02-12T03:49:26;95916.63;;;2.00;52.02
6132;BME280;3097;42.692;23.278;2023-02-12T03:51:53;95912.53;;;1.89;52.16
6132;BME280;3097;42.692;23.278;2023-02-12T03:54:20;95914.97;;;1.81;52.27
6132;BME280;3097;42.692;23.278;2023-02-12T03:57:00;95915.28;;;1.78;52.69
6132;BME280;3097;42.692;23.278;2023-02-12T03:59:28;95920.63;;;1.75;52.33
6132;BME280;3097;42.692;23.278;2023-02-12T04:01:56;95919.13;;;1.82;52.53
6132;BME280;3097;42.692;23.278;2023-02-12T04:04:22;95916.31;;;1.85;52.54
6132;BME280;3097;42.692;23.278;2023-02-12T04:06:49;95913.19;;;1.91;52.44
6132;BME280;3097;42.692;23.278;2023-02-12T04:09:16;95901.78;;;1.95;52.19
6132;BME280;3097;42.692;23.278;2023-02-12T04:20:24;95926.94;;;1.99;52.62
6132;BME280;3097;42.692;23.278;2023-02-12T04:28:36;95938.72;;;2.00;52.81
6132;BME280;3097;42.692;23.278;2023-02-12T04:31:17;95938.34;;;1.94;52.85
6132;BME280;3097;42.692;23.278;2023-02-12T04:34:00;95935.50;;;1.98;52.95
6132;BME280;3097;42.692;23.278;2023-02-12T04:36:34;95941.50;;;2.06;52.85
6132;BME280;3097;42.692;23.278;2023-02-12T04:39:07;95935.69;;;2.14;52.77
6132;BME280;3097;42.692;23.278;2023-02-12T04:41:36;95934.09;;;2.13;52.79
6132;BME280;3097;42.692;23.278;2023-02-12T04:44:21;95914.44;;;1.87;52.81
6132;BME280;3097;42.692;23.278;2023-02-12T04:46:48;95933.88;;;2.06;52.83
6132;BME280;3097;42.692;23.278;2023-02-12T04:49:19;95941.63;;;2.05;53.06
6132;BME280;3097;42.692;23.278;2023-02-12T04:51:45;95947.84;;;1.92;53.69
6132;BME280;3097;42.692;23.278;2023-02-12T04:54:12;95942.47;;;1.95;53.46
6132;BME280;3097;42.692;23.278;2023-02-12T04:56:37;95945.22;;;1.84;53.77
6132;BME280;3097;42.692;23.278;2023-02-12T04:59:03;95955.66;;;1.81;53.91
6132;BME280;3097;42.692;23.278;2023-02-12T05:01:29;95956.31;;;1.83;54.03
6132;BME280;3097;42.692;23.278;2023-02-12T05:03:55;95958.59;;;1.86;54.09
6132;BME280;3097;42.692;23.278;2023-02-12T05:06:20;95963.94;;;1.83;54.19
6132;BME280;3097;42.692;23.278;2023-02-12T05:08:45;95959.09;;;1.90;54.55
6132;BME280;3097;42.692;23.278;2023-02-12T05:11:11;95967.63;;;1.99;54.40
6132;BME280;3097;42.692;23.278;2023-02-12T05:13:37;95967.63;;;1.99;54.22
6132;BME280;3097;42.692;23.278;2023-02-12T05:16:04;95968.97;;;2.03;53.07
6132;BME280;3097;42.692;23.278;2023-02-12T05:18:30;95967.44;;;2.10;53.01
6132;BME280;3097;42.692;23.278;2023-02-12T05:21:01;95968.00;;;2.04;53.00
6132;BME280;3097;42.692;23.278;2023-02-12T05:23:35;95987.47;;;1.95;53.62
6132;BME280;3097;42.692;23.278;2023-02-12T05:26:03;95975.63;;;2.04;53.72
6132;BME280;3097;42.692;23.278;2023-02-12T05:28:29;95988.44;;;2.12;53.53
6132;BME280;3097;42.692;23.278;2023-02-12T05:31:02;95978.69;;;2.07;53.62
6132;BME280;3097;42.692;23.278;2023-02-12T05:33:28;95988.72;;;2.09;54.13
6132;BME280;3097;42.692;23.278;2023-02-12T05:35:54;95987.09;;;2.17;54.76
6132;BME280;3097;42.692;23.278;2023-02-12T05:38:20;95992.72;;;2.11;55.67
6132;BME280;3097;42.692;23.278;2023-02-12T05:40:45;95995.25;;;2.11;56.28
6132;BME280;3097;42.692;23.278;2023-02-12T05:43:11;96006.53;;;2.09;56.97
6132;BME280;3097;42.692;23.278;2023-02-12T05:45:36;95993.00;;;2.08;57.28
6132;BME280;3097;42.692;23.278;2023-02-12T05:48:03;96014.81;;;2.11;57.98
6132;BME280;3097;42.692;23.278;2023-02-12T05:50:28;96013.50;;;2.07;58.95
6132;BME280;3097;42.692;23.278;2023-02-12T05:52:54;96017.66;;;2.08;59.41
6132;BME280;3097;42.692;23.278;2023-02-12T05:55:20;96011.22;;;2.04;59.68
6132;BME280;3097;42.692;23.278;2023-02-12T05:57:45;96005.75;;;1.99;60.00
6132;BME280;3097;42.692;23.278;2023-02-12T06:00:12;95990.97;;;1.84;60.14
6132;BME280;3097;42.692;23.278;2023-02-12T06:02:38;96010.84;;;1.99;59.82
6132;BME280;3097;42.692;23.278;2023-02-12T06:05:04;96018.03;;;2.03;59.64
6132;BME280;3097;42.692;23.278;2023-02-12T06:07:29;96016.31;;;2.04;60.21
6132;BME280;3097;42.692;23.278;2023-02-12T06:09:55;96015.22;;;2.06;60.77
6132;BME280;3097;42.692;23.278;2023-02-12T06:12:20;96023.56;;;1.99;62.01
6132;BME280;3097;42.692;23.278;2023-02-12T06:14:45;96003.78;;;1.92;62.54
6132;BME280;3097;42.692;23.278;2023-02-12T06:17:11;96005.09;;;1.97;63.17
6132;BME280;3097;42.692;23.278;2023-02-12T06:19:37;96021.41;;;2.04;64.01
6132;BME280;3097;42.692;23.278;2023-02-12T06:22:02;96022.91;;;1.97;64.81
6132;BME280;3097;42.692;23.278;2023-02-12T06:24:27;96028.75;;;2.07;64.70
6132;BME280;3097;42.692;23.278;2023-02-12T06:26:53;96031.03;;;2.10;65.32
6132;BME280;3097;42.692;23.278;2023-02-12T06:29:20;96021.50;;;2.12;65.81
6132;BME280;3097;42.692;23.278;2023-02-12T06:31:46;96027.22;;;2.23;66.46
6132;BME280;3097;42.692;23.278;2023-02-12T06:34:13;95978.47;;;2.01;67.50
6132;BME280;3097;42.692;23.278;2023-02-12T06:36:41;96016.19;;;2.32;67.43
6132;BME280;3097;42.692;23.278;2023-02-12T06:39:09;96024.47;;;2.34;68.18
6132;BME280;3097;42.692;23.278;2023-02-12T06:41:35;96027.22;;;2.41;68.29
6132;BME280;3097;42.692;23.278;2023-02-12T06:44:01;96020.41;;;2.42;68.19
6132;BME280;3097;42.692;23.278;2023-02-12T06:46:26;96023.34;;;2.47;68.45
6132;BME280;3097;42.692;23.278;2023-02-12T06:48:53;96008.13;;;2.37;68.79
6132;BME280;3097;42.692;23.278;2023-02-12T06:51:19;95999.31;;;2.31;69.23
6132;BME280;3097;42.692;23.278;2023-02-12T06:53:48;96020.81;;;2.47;68.94
6132;BME280;3097;42.692;23.278;2023-02-12T06:56:15;96027.31;;;2.49;69.41
6132;BME280;3097;42.692;23.278;2023-02-12T06:58:43;95991.63;;;2.41;68.87
6132;BME280;3097;42.692;23.278;2023-02-12T07:01:20;96027.38;;;2.67;68.76
6132;BME280;3097;42.692;23.278;2023-02-12T07:03:49;96033.34;;;2.76;68.42
6132;BME280;3097;42.692;23.278;2023-02-12T07:06:15;96028.75;;;2.79;68.27
6132;BME280;3097;42.692;23.278;2023-02-12T07:08:40;96025.47;;;2.87;68.00
6132;BME280;3097;42.692;23.278;2023-02-12T07:11:07;96024.19;;;2.83;68.24
6132;BME280;3097;42.692;23.278;2023-02-12T07:13:33;96022.28;;;2.85;67.52
6132;BME280;3097;42.692;23.278;2023-02-12T07:16:03;95992.59;;;2.76;67.12
6132;BME280;3097;42.692;23.278;2023-02-12T07:18:29;96020.75;;;2.92;67.46
6132;BME280;3097;42.692;23.278;2023-02-12T07:20:55;96028.75;;;2.79;67.87
6132;BME280;3097;42.692;23.278;2023-02-12T07:23:20;96023.16;;;2.76;67.65
6132;BME280;3097;42.692;23.278;2023-02-12T07:25:53;96034.38;;;2.83;67.35
6132;BME280;3097;42.692;23.278;2023-02-12T07:28:19;96035.66;;;2.87;67.17
6132;BME280;3097;42.692;23.278;2023-02-12T07:30:44;96036.47;;;2.87;67.49
6132;BME280;3097;42.692;23.278;2023-02-12T07:33:10;96035.97;;;2.84;67.82
6132;BME280;3097;42.692;23.278;2023-02-12T07:35:35;95997.81;;;2.56;67.94
6132;BME280;3097;42.692;23.278;2023-02-12T07:38:01;96047.09;;;2.83;67.99
6132;BME280;3097;42.692;23.278;2023-02-12T07:40:26;96011.81;;;2.70;67.96
6132;BME280;3097;42.692;23.278;2023-02-12T07:42:55;96032.47;;;2.85;68.01
6132;BME280;3097;42.692;23.278;2023-02-12T07:45:20;96051.25;;;2.84;68.02
6132;BME280;3097;42.692;23.278;2023-02-12T07:47:46;96050.41;;;2.65;68.80
6132;BME280;3097;42.692;23.278;2023-02-12T07:50:11;96058.03;;;2.65;68.78
6132;BME280;3097;42.692;23.278;2023-02-12T07:52:37;96050.84;;;2.61;69.03
6132;BME280;3097;42.692;23.278;2023-02-12T07:55:02;96053.81;;;2.56;69.43
6132;BME280;3097;42.692;23.278;2023-02-12T07:57:28;96048.56;;;2.40;70.21
6132;BME280;3097;42.692;23.278;2023-02-12T07:59:53;96057.31;;;2.28;71.13
6132;BME280;3097;42.692;23.278;2023-02-12T08:02:19;96063.63;;;2.24;71.29
6132;BME280;3097;42.692;23.278;2023-02-12T08:04:45;96062.69;;;2.25;71.44
6132;BME280;3097;42.692;23.278;2023-02-12T08:07:10;96062.84;;;2.14;72.07
6132;BME280;3097;42.692;23.278;2023-02-12T08:09:36;96061.88;;;2.24;72.07
6132;BME280;3097;42.692;23.278;2023-02-12T08:12:01;96059.28;;;2.34;71.61
6132;BME280;3097;42.692;23.278;2023-02-12T08:14:27;96055.63;;;2.46;71.11
6132;BME280;3097;42.692;23.278;2023-02-12T08:16:52;96029.50;;;2.44;70.63
6132;BME280;3097;42.692;23.278;2023-02-12T08:19:18;96025.78;;;2.39;71.11
6132;BME280;3097;42.692;23.278;2023-02-12T08:21:44;96048.97;;;2.63;70.95
6132;BME280;3097;42.692;23.278;2023-02-12T08:24:11;96054.56;;;2.66;71.26
6132;BME280;3097;42.692;23.278;2023-02-12T08:26:38;96055.13;;;2.60;71.22
6132;BME280;3097;42.692;23.278;2023-02-12T08:29:15;96064.47;;;2.69;71.27
6132;BME280;3097;42.692;23.278;2023-02-12T08:31:44;96068.25;;;2.83;70.43
6132;BME280;3097;42.692;23.278;2023-02-12T08:34:21;96069.97;;;2.65;71.03
6132;BME280;3097;42.692;23.278;2023-02-12T08:36:48;96075.72;;;2.67;71.08
6132;BME280;3097;42.692;23.278;2023-02-12T08:39:14;96082.38;;;2.50;71.38
6132;BME280;3097;42.692;23.278;2023-02-12T08:41:40;96089.50;;;2.47;72.29
6132;BME280;3097;42.692;23.278;2023-02-12T08:44:09;96088.94;;;2.53;72.50
6132;BME280;3097;42.692;23.278;2023-02-12T08:46:37;96092.28;;;2.53;71.97
6132;BME280;3097;42.692;23.278;2023-02-12T08:49:09;96091.38;;;2.45;72.56
6132;BME280;3097;42.692;23.278;2023-02-12T08:51:37;96099.03;;;2.35;73.25
6132;BME280;3097;42.692;23.278;2023-02-12T08:54:06;96094.72;;;2.45;73.00
6132;BME280;3097;42.692;23.278;2023-02-12T08:56:33;96094.72;;;2.45;73.05
6132;BME280;3097;42.692;23.278;2023-02-12T08:59:00;96092.44;;;2.42;73.44
6132;BME280;3097;42.692;23.278;2023-02-12T09:01:28;96099.47;;;2.58;73.14
6132;BME280;3097;42.692;23.278;2023-02-12T09:03:54;96095.19;;;2.58;72.53
6132;BME280;3097;42.692;23.278;2023-02-12T09:06:22;96103.13;;;2.55;73.34
6132;BME280;3097;42.692;23.278;2023-02-12T09:08:48;96097.75;;;2.58;73.20
6132;BME280;3097;42.692;23.278;2023-02-12T09:11:22;96089.94;;;2.69;72.40
6132;BME280;3097;42.692;23.278;2023-02-12T09:13:51;96085.47;;;2.71;72.21
6132;BME280;3097;42.692;23.278;2023-02-12T09:16:17;96089.56;;;2.82;71.96
6132;BME280;3097;42.692;23.278;2023-02-12T09:18:42;96114.63;;;3.04;71.29
6132;BME280;3097;42.692;23.278;2023-02-12T09:21:12;96115.72;;;3.02;71.81
6132;BME280;3097;42.692;23.278;2023-02-12T09:23:39;96117.09;;;2.96;71.63
6132;BME280;3097;42.692;23.278;2023-02-12T09:26:07;96113.59;;;2.97;72.19
6132;BME280;3097;42.692;23.278;2023-02-12T09:28:33;96094.75;;;2.90;72.19
6132;BME280;3097;42.692;23.278;2023-02-12T09:31:07;96116.59;;;2.93;71.86
6132;BME280;3097;42.692;23.278;2023-02-12T09:33:33;96114.31;;;2.90;72.36
6132;BME280;3097;42.692;23.278;2023-02-12T09:36:03;96107.47;;;2.90;72.81
6132;BME280;3097;42.692;23.278;2023-02-12T09:38:28;96116.28;;;2.96;72.97
6132;BME280;3097;42.692;23.278;2023-02-12T09:52:21;96080.19;;;2.83;71.71
6132;BME280;3097;42.692;23.278;2023-02-12T09:54:49;96147.59;;;3.06;71.86
6132;BME280;3097;42.692;23.278;2023-02-12T09:59:59;96135.00;;;3.04;72.55
6132;BME280;3097;42.692;23.278;2023-02-12T10:02:26;96117.44;;;2.84;72.00
6132;BME280;3097;42.692;23.278;2023-02-12T10:04:52;96142.50;;;3.06;72.54
6132;BME280;3097;42.692;23.278;2023-02-12T10:07:52;96131.88;;;3.10;72.47
6132;BME280;3097;42.692;23.278;2023-02-12T10:16:26;96096.34;;;3.09;71.11
6132;BME280;3097;42.692;23.278;2023-02-12T10:19:07;96141.28;;;3.28;70.60
6132;BME280;3097;42.692;23.278;2023-02-12T10:21:55;96136.25;;;3.18;72.09
6132;BME280;3097;42.692;23.278;2023-02-12T10:27:19;96135.81;;;3.40;71.35
6132;BME280;3097;42.692;23.278;2023-02-12T10:29:49;96112.09;;;3.40;70.16
6132;BME280;3097;42.692;23.278;2023-02-12T10:32:25;96124.47;;;3.53;71.46
6132;BME280;3097;42.692;23.278;2023-02-12T10:34:52;96123.28;;;3.65;70.30
6132;BME280;3097;42.692;23.278;2023-02-12T10:37:37;96129.94;;;3.75;69.67
6132;BME280;3097;42.692;23.278;2023-02-12T10:40:24;96126.91;;;3.80;70.14
6132;BME280;3097;42.692;23.278;2023-02-12T10:42:55;96126.91;;;3.98;70.29
6132;BME280;3097;42.692;23.278;2023-02-12T10:45:33;96128.44;;;4.16;68.16
6132;BME280;3097;42.692;23.278;2023-02-12T10:48:08;96123.94;;;4.10;68.88
6132;BME280;3097;42.692;23.278;2023-02-12T10:53:02;96133.06;;;4.13;68.35
6132;BME280;3097;42.692;23.278;2023-02-12T10:55:33;96128.81;;;4.29;68.70
6132;BME280;3097;42.692;23.278;2023-02-12T10:58:01;96127.81;;;4.48;68.36
6132;BME280;3097;42.692;23.278;2023-02-12T11:03:20;96135.16;;;4.85;66.00
6132;BME280;3097;42.692;23.278;2023-02-12T11:05:47;96100.59;;;4.65;64.78
6132;BME280;3097;42.692;23.278;2023-02-12T11:10:53;96126.66;;;4.77;65.57
6132;BME280;3097;42.692;23.278;2023-02-12T11:13:25;96131.56;;;4.70;66.04
6132;BME280;3097;42.692;23.278;2023-02-12T11:15:52;96129.34;;;4.75;66.24
6132;BME280;3097;42.692;23.278;2023-02-12T11:18:31;96125.88;;;4.84;66.29
6132;BME280;3097;42.692;23.278;2023-02-12T11:21:09;96132.66;;;5.01;64.73
6132;BME280;3097;42.692;23.278;2023-02-12T11:23:38;96094.25;;;4.77;64.77
6132;BME280;3097;42.692;23.278;2023-02-12T11:26:08;96123.69;;;5.05;65.31
6132;BME280;3097;42.692;23.278;2023-02-12T11:31:28;96126.81;;;5.33;64.38
6132;BME280;3097;42.692;23.278;2023-02-12T11:34:17;96126.97;;;5.40;63.55
6132;BME280;3097;42.692;23.278;2023-02-12T11:36:51;96128.88;;;5.38;64.21
6132;BME280;3097;42.692;23.278;2023-02-12T11:39:37;96107.59;;;5.21;63.18
6132;BME280;3097;42.692;23.278;2023-02-12T11:42:16;96130.47;;;5.31;63.96
6132;BME280;3097;42.692;23.278;2023-02-12T11:44:48;96130.50;;;5.39;63.91
6132;BME280;3097;42.692;23.278;2023-02-12T11:47:23;96127.00;;;5.48;63.11
6132;BME280;3097;42.692;23.278;2023-02-12T11:49:53;96122.03;;;5.47;62.31
6132;BME280;3097;42.692;23.278;2023-02-12T11:52:31;96126.31;;;5.30;63.88
6132;BME280;3097;42.692;23.278;2023-02-12T11:55:13;96112.25;;;5.26;64.49
6132;BME280;3097;42.692;23.278;2023-02-12T11:57:45;96128.19;;;5.20;64.92
6132;BME280;3097;42.692;23.278;2023-02-12T12:00:27;96124.56;;;5.30;64.63
6132;BME280;3097;42.692;23.278;2023-02-12T12:03:01;96126.63;;;5.35;63.89
6132;BME280;3097;42.692;23.278;2023-02-12T12:05:48;96126.13;;;5.15;63.96
6132;BME280;3097;42.692;23.278;2023-02-12T12:08:27;96130.09;;;5.01;64.31
6132;BME280;3097;42.692;23.278;2023-02-12T12:10:59;96138.72;;;5.00;64.04
6132;BME280;3097;42.692;23.278;2023-02-12T12:13:33;96127.47;;;4.85;64.76
6132;BME280;3097;42.692;23.278;2023-02-12T12:16:11;96113.75;;;4.86;64.73
6132;BME280;3097;42.692;23.278;2023-02-12T12:18:58;96135.84;;;5.03;65.23
6132;BME280;3097;42.692;23.278;2023-02-12T12:24:55;96124.69;;;5.21;63.65
6132;BME280;3097;42.692;23.278;2023-02-12T12:27:40;96127.88;;;5.15;64.06
6132;BME280;3097;42.692;23.278;2023-02-12T12:33:18;96137.19;;;5.32;63.53
6132;BME280;3097;42.692;23.278;2023-02-12T12:59:52;96143.28;;;5.47;62.68
6132;BME280;3097;42.692;23.278;2023-02-12T13:06:16;96157.47;;;5.41;62.90
6132;BME280;3097;42.692;23.278;2023-02-12T13:13:37;96134.06;;;5.04;64.23
6132;BME280;3097;42.692;23.278;2023-02-12T13:16:08;96170.56;;;5.30;64.08
6132;BME280;3097;42.692;23.278;2023-02-12T13:18:48;96167.88;;;5.32;63.44
6132;BME280;3097;42.692;23.278;2023-02-12T13:21:40;96168.16;;;5.21;64.16
6132;BME280;3097;42.692;23.278;2023-02-12T13:26:51;96132.34;;;5.13;64.45
6132;BME280;3097;42.692;23.278;2023-02-12T13:32:03;96165.47;;;5.38;63.62
6132;BME280;3097;42.692;23.278;2023-02-12T13:34:31;96171.25;;;5.49;63.72
6132;BME280;3097;42.692;23.278;2023-02-12T13:37:03;96168.84;;;5.47;63.15
6132;BME280;3097;42.692;23.278;2023-02-12T13:39:38;96165.00;;;5.43;63.43
6132;BME280;3097;42.692;23.278;2023-02-12T13:45:14;96173.47;;;5.52;62.91
6132;BME280;3097;42.692;23.278;2023-02-12T13:56:05;96192.75;;;5.22;63.82
6132;BME280;3097;42.692;23.278;2023-02-12T14:07:18;96201.72;;;5.26;64.92
6132;BME280;3097;42.692;23.278;2023-02-12T14:12:37;96213.69;;;5.17;64.84
6132;BME280;3097;42.692;23.278;2023-02-12T14:15:26;96171.84;;;4.84;65.07
6132;BME280;3097;42.692;23.278;2023-02-12T14:17:55;96217.63;;;5.12;64.64
6132;BME280;3097;42.692;23.278;2023-02-12T14:20:32;96221.78;;;5.13;64.88
6132;BME280;3097;42.692;23.278;2023-02-12T14:23:00;96211.53;;;5.04;65.05
6132;BME280;3097;42.692;23.278;2023-02-12T14:25:58;96229.78;;;5.10;64.86
6132;BME280;3097;42.692;23.278;2023-02-12T14:28:40;96192.59;;;4.81;65.25
6132;BME280;3097;42.692;23.278;2023-02-12T14:33:42;96236.47;;;5.02;65.00
6132;BME280;3097;42.692;23.278;2023-02-12T14:39:03;96242.84;;;5.06;65.47
6132;BME280;3097;42.692;23.278;2023-02-12T14:41:37;96205.69;;;4.78;65.48
6132;BME280;3097;42.692;23.278;2023-02-12T14:49:38;96244.72;;;4.96;65.39
6132;BME280;3097;42.692;23.278;2023-02-12T14:52:13;96261.56;;;5.07;64.80
6132;BME280;3097;42.692;23.278;2023-02-12T14:54:42;96251.44;;;4.97;65.34
6132;BME280;3097;42.692;23.278;2023-02-12T14:57:25;96267.47;;;5.07;65.19
6132;BME280;3097;42.692;23.278;2023-02-12T14:59:54;96262.81;;;5.03;65.34
6132;BME280;3097;42.692;23.278;2023-02-12T15:02:33;96244.09;;;4.94;65.31
6132;BME280;3097;42.692;23.278;2023-02-12T15:05:05;96268.44;;;5.15;65.39
6132;BME280;3097;42.692;23.278;2023-02-12T15:07:49;96254.53;;;5.09;69.14
6132;BME280;3097;42.692;23.278;2023-02-12T15:10:22;96245.03;;;4.93;66.44
6132;BME280;3097;42.692;23.278;2023-02-12T15:15:46;96287.63;;;5.11;66.25
6132;BME280;3097;42.692;23.278;2023-02-12T15:21:19;96264.72;;;4.75;66.43
6132;BME280;3097;42.692;23.278;2023-02-12T15:23:55;96309.88;;;4.92;66.83
6132;BME280;3097;42.692;23.278;2023-02-12T15:26:23;96309.56;;;4.95;66.53
6132;BME280;3097;42.692;23.278;2023-02-12T15:28:51;96319.88;;;4.86;66.99
6132;BME280;3097;42.692;23.278;2023-02-12T15:31:26;96323.47;;;4.75;67.43
6132;BME280;3097;42.692;23.278;2023-02-12T15:33:54;96328.16;;;4.80;67.35
6132;BME280;3097;42.692;23.278;2023-02-12T15:36:22;96330.91;;;4.86;67.23
6132;BME280;3097;42.692;23.278;2023-02-12T15:39:13;96335.34;;;4.84;67.43
6132;BME280;3097;42.692;23.278;2023-02-12T15:41:40;96228.41;;;4.12;67.45
6132;BME280;3097;42.692;23.278;2023-02-12T15:44:26;96333.09;;;4.81;67.34
6132;BME280;3097;42.692;23.278;2023-02-12T15:47:12;96339.91;;;4.73;67.85
6132;BME280;3097;42.692;23.278;2023-02-12T15:49:40;96339.53;;;4.67;68.17
6132;BME280;3097;42.692;23.278;2023-02-12T15:52:13;96349.69;;;4.77;67.57
6132;BME280;3097;42.692;23.278;2023-02-12T15:54:43;96341.28;;;4.67;68.23
6132;BME280;3097;42.692;23.278;2023-02-12T15:57:11;96352.91;;;4.61;68.25
6132;BME280;3097;42.692;23.278;2023-02-12T15:59:37;96356.94;;;4.64;68.35
6132;BME280;3097;42.692;23.278;2023-02-12T16:02:16;96344.09;;;4.56;68.18
6132;BME280;3097;42.692;23.278;2023-02-12T16:04:42;96360.72;;;4.60;68.37
6132;BME280;3097;42.692;23.278;2023-02-12T16:07:09;96374.16;;;4.62;68.47
6132;BME280;3097;42.692;23.278;2023-02-12T16:09:36;96375.09;;;4.61;68.67